createdAt,value
2023-01-12T00:00:42.417Z,11.10
2023-01-12T00:03:10.141Z,27.55
2023-01-12T00:05:38.169Z,20.38
2023-01-12T00:08:06.190Z,8.15
2023-01-12T00:10:34.196Z,8.52
2023-01-12T00:13:02.165Z,7.95
2023-01-12T00:15:55.206Z,10.25
2023-01-12T00:18:22.178Z,10.07
2023-01-12T00:20:50.184Z,16.33
2023-01-12T00:23:19.587Z,15.93
2023-01-12T00:25:57.173Z,15.98
2023-01-12T00:28:24.219Z,7.70
2023-01-12T00:33:44.170Z,13.00
2023-01-12T00:36:13.966Z,10.90
2023-01-12T00:38:47.305Z,9.68
2023-01-12T00:41:38.679Z,12.05
2023-01-12T00:44:24.805Z,7.05
2023-01-12T00:47:22.069Z,6.32
2023-01-12T00:49:50.322Z,9.75
2023-01-12T00:52:29.979Z,10.77
2023-01-12T00:54:59.347Z,12.82
2023-01-12T00:57:26.554Z,9.63
2023-01-12T00:59:55.522Z,20.40
2023-01-12T01:02:48.238Z,13.82
2023-01-12T01:05:17.844Z,9.75
2023-01-12T01:07:47.412Z,11.38
2023-01-12T01:10:15.636Z,6.90
2023-01-12T01:12:44.322Z,8.65
2023-01-12T01:15:17.290Z,16.15
2023-01-12T01:17:44.196Z,11.55
2023-01-12T01:20:12.628Z,17.02
2023-01-12T01:22:40.168Z,9.88
2023-01-12T01:25:08.714Z,12.38
2023-01-12T01:27:36.185Z,10.52
2023-01-12T01:30:09.045Z,9.35
2023-01-12T01:32:36.254Z,23.83
2023-01-12T01:35:04.411Z,11.15
2023-01-12T01:37:32.168Z,8.65
2023-01-12T01:40:05.189Z,12.73
2023-01-12T01:42:32.223Z,7.13
2023-01-12T01:45:02.656Z,8.00
2023-01-12T01:47:39.499Z,6.32
2023-01-12T01:50:14.440Z,8.38
2023-01-12T01:53:14.128Z,8.85
2023-01-12T01:56:05.942Z,6.22
2023-01-12T01:58:39.130Z,12.57
2023-01-12T02:01:07.297Z,7.63
2023-01-12T02:03:41.154Z,12.23
2023-01-12T02:06:08.981Z,9.20
2023-01-12T02:09:12.693Z,9.07
2023-01-12T02:12:26.071Z,9.00
2023-01-12T02:15:13.937Z,5.05
2023-01-12T02:18:10.692Z,9.30
2023-01-12T02:20:56.641Z,9.70
2023-01-12T02:23:57.547Z,4.97
2023-01-12T02:26:42.449Z,4.68
2023-01-12T02:32:51.185Z,6.50
2023-01-12T02:38:45.468Z,12.30
2023-01-12T02:44:53.173Z,9.07
2023-01-12T02:47:32.002Z,11.10
2023-01-12T02:50:03.951Z,14.85
2023-01-12T02:52:34.410Z,10.60
2023-01-12T02:55:54.851Z,4.97
2023-01-12T02:58:25.065Z,6.03
2023-01-12T03:03:56.184Z,6.85
2023-01-12T03:06:24.159Z,7.95
2023-01-12T03:08:52.601Z,5.95
2023-01-12T03:11:22.330Z,4.70
2023-01-12T03:13:54.169Z,7.45
2023-01-12T03:19:29.537Z,7.28
2023-01-12T03:22:00.323Z,5.35
2023-01-12T03:24:35.122Z,8.00
2023-01-12T03:27:37.160Z,10.60
2023-01-12T03:30:35.821Z,8.23
2023-01-12T03:33:34.183Z,5.68
2023-01-12T03:36:15.615Z,8.07
2023-01-12T03:39:17.982Z,6.05
2023-01-12T03:42:20.533Z,5.10
2023-01-12T03:45:26.639Z,5.82
2023-01-12T03:48:11.442Z,4.28
2023-01-12T03:50:59.752Z,8.50
2023-01-12T03:53:29.894Z,4.88
2023-01-12T03:56:03.857Z,6.43
2023-01-12T03:58:34.806Z,5.30
2023-01-12T04:01:03.695Z,3.90
2023-01-12T04:03:37.522Z,4.78
2023-01-12T04:06:09.358Z,5.90
2023-01-12T04:08:36.386Z,4.28
2023-01-12T04:11:24.175Z,9.77
2023-01-12T04:14:17.490Z,7.40
2023-01-12T04:16:44.164Z,6.78
2023-01-12T04:19:12.381Z,5.85
2023-01-12T04:21:58.660Z,4.63
2023-01-12T04:24:26.190Z,9.85
2023-01-12T04:26:54.252Z,8.65
2023-01-12T04:29:48.388Z,7.05
2023-01-12T04:32:16.239Z,6.72
2023-01-12T04:37:43.250Z,6.13
2023-01-12T04:40:12.150Z,8.38
2023-01-12T04:43:07.898Z,4.10
2023-01-12T04:45:41.720Z,6.65
2023-01-12T04:48:12.398Z,6.35
2023-01-12T04:50:41.071Z,11.43
2023-01-12T04:56:12.097Z,5.35
2023-01-12T04:58:42.183Z,9.18
2023-01-12T05:01:11.132Z,7.25
2023-01-12T05:04:14.581Z,6.50
2023-01-12T05:06:42.259Z,6.53
2023-01-12T05:09:28.887Z,12.98
2023-01-12T05:12:02.170Z,10.10
2023-01-12T05:14:30.245Z,5.90
2023-01-12T05:16:59.576Z,5.10
2023-01-12T05:19:33.187Z,6.50
2023-01-12T05:22:05.148Z,3.83
2023-01-12T05:27:26.312Z,6.65
2023-01-12T05:29:57.013Z,5.93
2023-01-12T05:32:24.207Z,5.95
2023-01-12T05:34:52.381Z,9.27
2023-01-12T05:37:20.198Z,6.05
2023-01-12T05:39:53.271Z,10.50
2023-01-12T05:42:43.526Z,8.23
2023-01-12T05:45:11.162Z,7.47
2023-01-12T05:47:38.240Z,10.70
2023-01-12T05:53:10.656Z,4.80
2023-01-12T05:56:09.914Z,7.90
2023-01-12T05:58:38.386Z,8.05
2023-01-12T06:01:10.895Z,5.63
2023-01-12T06:03:38.213Z,7.38
2023-01-12T06:06:06.339Z,8.13
2023-01-12T06:08:34.192Z,5.53
2023-01-12T06:11:03.373Z,4.35
2023-01-12T06:16:41.915Z,10.32
2023-01-12T06:22:02.156Z,4.60
2023-01-12T06:24:54.510Z,8.73
2023-01-12T06:27:22.209Z,3.60
2023-01-12T06:29:55.223Z,5.75
2023-01-12T06:32:28.976Z,8.50
2023-01-12T06:35:01.619Z,4.60
2023-01-12T06:37:34.171Z,7.95
2023-01-12T06:40:02.371Z,4.95
2023-01-12T06:42:55.434Z,4.63
2023-01-12T06:45:22.183Z,13.38
2023-01-12T06:47:52.109Z,6.78
2023-01-12T06:50:20.244Z,6.65
2023-01-12T06:52:48.363Z,7.47
2023-01-12T06:55:16.446Z,5.22
2023-01-12T06:57:49.733Z,7.53
2023-01-12T07:00:18.666Z,4.90
2023-01-12T07:02:49.846Z,5.40
2023-01-12T07:05:18.897Z,7.97
2023-01-12T07:10:38.169Z,6.93
2023-01-12T07:13:11.369Z,8.90
2023-01-12T07:15:38.749Z,5.03
2023-01-12T07:18:06.203Z,7.72
2023-01-12T07:20:34.469Z,7.35
2023-01-12T07:23:02.548Z,5.47
2023-01-12T07:25:57.158Z,7.07
2023-01-12T07:28:24.323Z,5.05
2023-01-12T07:31:21.201Z,4.88
2023-01-12T07:33:50.904Z,6.13
2023-01-12T07:36:23.182Z,7.50
2023-01-12T07:38:50.167Z,6.53
2023-01-12T07:41:41.937Z,7.18
2023-01-12T07:44:10.237Z,5.72
2023-01-12T07:46:38.417Z,4.60
2023-01-12T07:49:06.233Z,7.07
2023-01-12T07:51:34.184Z,4.85
2023-01-12T07:54:02.204Z,5.13
2023-01-12T07:56:35.283Z,6.40
2023-01-12T07:59:02.271Z,8.20
2023-01-12T08:01:35.905Z,5.75
2023-01-12T08:04:29.546Z,8.02
2023-01-12T08:06:57.036Z,6.88
2023-01-12T08:09:55.230Z,8.98
2023-01-12T08:12:22.198Z,8.00
2023-01-12T08:14:55.188Z,6.60
2023-01-12T08:17:23.839Z,8.43
2023-01-12T08:20:01.153Z,4.90
2023-01-12T08:22:40.524Z,4.70
2023-01-12T08:25:16.876Z,5.32
2023-01-12T08:30:38.198Z,5.65
2023-01-12T08:33:06.472Z,3.58
2023-01-12T08:38:31.384Z,6.10
2023-01-12T08:41:16.681Z,3.50
2023-01-12T08:44:02.391Z,4.50
2023-01-12T08:46:36.601Z,3.35
2023-01-12T08:49:16.958Z,3.42
2023-01-12T08:51:45.049Z,2.70
2023-01-12T08:54:14.240Z,2.28
2023-01-12T08:56:42.342Z,3.75
2023-01-12T08:59:10.235Z,3.72
2023-01-12T09:01:38.999Z,2.88
2023-01-12T09:04:06.362Z,3.25
2023-01-12T09:06:42.011Z,3.40
2023-01-12T09:09:13.601Z,4.05
2023-01-12T09:11:43.722Z,3.55
2023-01-12T09:14:13.737Z,2.22
2023-01-12T09:16:43.054Z,4.40
2023-01-12T09:22:02.195Z,2.60
2023-01-12T09:24:34.222Z,2.72
2023-01-12T09:27:02.875Z,1.70
2023-01-12T09:29:30.233Z,3.55
2023-01-12T09:31:58.591Z,2.33
2023-01-12T09:34:28.425Z,1.95
2023-01-12T09:37:01.734Z,1.05
2023-01-12T09:39:55.783Z,2.55
2023-01-12T09:42:42.746Z,1.92
2023-01-12T09:45:40.795Z,1.10
2023-01-12T09:48:12.256Z,1.92
2023-01-12T09:50:55.105Z,2.35
2023-01-12T09:53:31.239Z,1.20
2023-01-12T09:56:20.359Z,2.90
2023-01-12T09:59:11.941Z,1.88
2023-01-12T10:01:40.237Z,3.53
2023-01-12T10:04:13.432Z,1.92
2023-01-12T10:06:41.053Z,2.35
2023-01-12T10:09:22.733Z,2.97
2023-01-12T10:12:31.834Z,3.58
2023-01-12T10:18:34.820Z,2.03
2023-01-12T10:21:02.602Z,1.60
2023-01-12T10:23:30.876Z,2.78
2023-01-12T10:26:11.747Z,2.00
2023-01-12T10:28:44.651Z,1.02
2023-01-12T10:31:38.295Z,1.27
2023-01-12T10:35:14.258Z,1.50
2023-01-12T10:37:51.015Z,1.85
2023-01-12T10:40:33.136Z,1.13
2023-01-12T10:43:23.739Z,3.42
2023-01-12T10:45:55.303Z,1.15
2023-01-12T10:48:50.566Z,1.20
2023-01-12T10:51:30.123Z,1.60
2023-01-12T10:54:20.297Z,1.90
2023-01-12T10:57:02.494Z,1.60
2023-01-12T10:59:35.566Z,3.35
2023-01-12T11:02:16.778Z,1.52
2023-01-12T11:04:52.403Z,1.38
2023-01-12T11:07:31.494Z,1.15
2023-01-12T11:10:20.030Z,1.33
2023-01-12T11:13:32.932Z,3.55
2023-01-12T11:16:12.514Z,1.88
2023-01-12T11:18:51.184Z,2.00
2023-01-12T11:21:22.192Z,1.60
2023-01-12T11:24:37.785Z,1.83
2023-01-12T11:27:26.270Z,1.70
2023-01-12T11:30:19.726Z,1.98
2023-01-12T11:32:59.734Z,2.10
2023-01-12T11:35:39.802Z,1.92
2023-01-12T11:38:21.019Z,1.17
2023-01-12T11:41:29.138Z,2.28
2023-01-12T11:44:05.773Z,1.55
2023-01-12T11:46:46.934Z,1.63
2023-01-12T11:49:27.281Z,2.42
2023-01-12T11:51:56.906Z,1.67
2023-01-12T11:54:27.112Z,1.20
2023-01-12T11:57:06.371Z,1.23
2023-01-12T11:59:56.830Z,1.33
2023-01-12T12:02:41.198Z,1.85
2023-01-12T12:05:29.401Z,1.38
2023-01-12T12:11:25.157Z,2.15
2023-01-12T12:14:29.692Z,3.72
2023-01-12T12:17:23.750Z,2.33
2023-01-12T12:20:11.911Z,2.90
2023-01-12T12:23:09.370Z,1.95
2023-01-12T12:26:05.973Z,1.83
2023-01-12T12:28:55.888Z,3.72
2023-01-12T12:31:47.240Z,3.00
2023-01-12T12:34:35.133Z,2.97
2023-01-12T12:37:12.936Z,3.70
2023-01-12T12:39:54.908Z,2.15
2023-01-12T12:43:18.941Z,1.83
2023-01-12T12:46:41.509Z,2.67
2023-01-12T12:49:10.739Z,2.20
2023-01-12T12:51:45.582Z,3.58
2023-01-12T12:54:40.251Z,3.78
2023-01-12T12:57:08.377Z,6.35
2023-01-12T12:59:52.108Z,4.90
2023-01-12T13:02:52.243Z,2.67
2023-01-12T13:05:41.509Z,4.55
2023-01-12T13:08:23.710Z,3.63
2023-01-12T13:11:02.744Z,3.03
2023-01-12T13:13:38.601Z,2.35
2023-01-12T13:19:38.473Z,4.15
2023-01-12T13:22:43.962Z,6.55
2023-01-12T13:25:22.260Z,2.42
2023-01-12T13:27:59.872Z,3.08
2023-01-12T13:30:28.217Z,5.72
2023-01-12T13:33:17.496Z,3.00
2023-01-12T13:35:47.076Z,4.60
2023-01-12T13:41:17.810Z,9.40
2023-01-12T13:43:57.964Z,6.57
2023-01-12T13:47:04.401Z,9.65
2023-01-12T13:50:01.339Z,2.50
2023-01-12T13:52:30.704Z,11.10
2023-01-12T13:54:58.960Z,7.13
2023-01-12T13:57:30.329Z,8.85
2023-01-12T14:00:11.324Z,8.82
2023-01-12T14:02:47.633Z,8.75
2023-01-12T14:05:23.573Z,6.13
2023-01-12T14:08:17.816Z,8.23
2023-01-12T14:10:51.009Z,7.00
2023-01-12T14:14:23.660Z,8.27
2023-01-12T14:17:15.058Z,7.45
2023-01-12T14:19:51.788Z,6.68
2023-01-12T14:22:20.911Z,4.68
2023-01-12T14:24:48.414Z,6.70
2023-01-12T14:27:25.494Z,6.18
2023-01-12T14:29:59.439Z,8.55
2023-01-12T14:32:26.361Z,7.57
2023-01-12T14:34:54.327Z,6.85
2023-01-12T14:37:31.971Z,7.97
2023-01-12T14:40:00.569Z,6.53
2023-01-12T14:42:46.830Z,7.38
2023-01-12T14:45:47.019Z,9.38
2023-01-12T14:48:29.279Z,9.10
2023-01-12T14:51:05.504Z,8.73
2023-01-12T14:53:40.607Z,7.60
2023-01-12T14:57:04.130Z,8.32
2023-01-12T14:59:42.792Z,6.43
2023-01-12T15:02:13.301Z,7.70
2023-01-12T15:05:01.439Z,9.80
2023-01-12T15:07:52.843Z,8.88
2023-01-12T15:13:18.521Z,13.02
2023-01-12T15:16:04.847Z,10.52
2023-01-12T15:18:54.743Z,10.35
2023-01-12T15:21:49.159Z,9.65
2023-01-12T15:24:48.802Z,14.77
2023-01-12T15:27:42.243Z,13.25
2023-01-12T15:30:16.304Z,12.77
2023-01-12T15:32:48.536Z,11.77
2023-01-12T15:35:21.169Z,6.88
2023-01-12T15:37:48.226Z,14.88
2023-01-12T15:40:17.878Z,12.32
2023-01-12T15:42:47.474Z,9.63
2023-01-12T15:45:29.043Z,10.18
2023-01-12T15:47:56.495Z,10.40
2023-01-12T15:50:24.309Z,14.07
2023-01-12T15:52:52.740Z,10.57
2023-01-12T15:55:22.440Z,9.98
2023-01-12T15:57:52.796Z,11.98
2023-01-12T16:00:26.686Z,14.45
2023-01-12T16:02:54.195Z,15.85
2023-01-12T16:05:26.490Z,6.93
2023-01-12T16:07:54.634Z,8.50
2023-01-12T16:10:22.522Z,14.70
2023-01-12T16:13:16.140Z,11.40
2023-01-12T16:15:44.129Z,15.32
2023-01-12T16:18:12.194Z,7.82
2023-01-12T16:20:40.137Z,8.45
2023-01-12T16:23:08.166Z,9.77
2023-01-12T16:25:41.236Z,11.40
2023-01-12T16:28:09.237Z,12.30
2023-01-12T16:30:44.903Z,12.80
2023-01-12T16:33:15.462Z,11.90
2023-01-12T16:35:42.191Z,11.68
2023-01-12T16:38:59.346Z,9.82
2023-01-12T16:41:31.379Z,10.75
2023-01-12T16:43:58.806Z,8.10
2023-01-12T16:46:32.171Z,8.10
2023-01-12T16:49:02.346Z,7.32
2023-01-12T16:51:35.285Z,6.85
2023-01-12T16:54:04.628Z,8.43
2023-01-12T16:56:56.452Z,9.45
2023-01-12T16:59:51.430Z,8.02
2023-01-12T17:02:25.893Z,7.50
2023-01-12T17:04:54.178Z,11.48
2023-01-12T17:07:22.337Z,8.80
2023-01-12T17:09:50.372Z,6.20
2023-01-12T17:15:10.935Z,8.18
2023-01-12T17:17:38.360Z,7.57
2023-01-12T17:20:06.671Z,9.98
2023-01-12T17:22:40.454Z,8.88
2023-01-12T17:25:08.932Z,7.93
2023-01-12T17:27:42.408Z,6.90
2023-01-12T17:30:11.098Z,10.73
2023-01-12T17:32:38.403Z,8.88
2023-01-12T17:35:09.244Z,5.28
2023-01-12T17:37:36.737Z,8.00
2023-01-12T17:40:04.775Z,7.40
2023-01-12T17:42:50.881Z,7.10
2023-01-12T17:45:24.241Z,6.57
2023-01-12T17:47:52.195Z,6.10
2023-01-12T17:50:20.267Z,4.40
2023-01-12T17:52:48.299Z,4.70
2023-01-12T17:55:16.577Z,4.55
2023-01-12T17:57:44.168Z,3.85
2023-01-12T18:00:20.761Z,3.42
2023-01-12T18:02:52.906Z,3.35
2023-01-12T18:05:47.181Z,4.47
2023-01-12T18:08:18.505Z,4.95
2023-01-12T18:10:49.945Z,4.72
2023-01-12T18:13:18.214Z,5.15
2023-01-12T18:15:46.369Z,4.20
2023-01-12T18:18:41.944Z,4.18
2023-01-12T18:24:09.555Z,3.75
2023-01-12T18:29:30.528Z,8.70
2023-01-12T18:31:58.208Z,4.30
2023-01-12T18:34:31.485Z,4.35
2023-01-12T18:36:58.452Z,3.47
2023-01-12T18:39:26.765Z,3.58
2023-01-12T18:42:13.017Z,4.30
2023-01-12T18:44:40.163Z,4.10
2023-01-12T18:47:31.851Z,3.50
2023-01-12T18:50:20.499Z,2.45
2023-01-12T18:56:49.811Z,2.15
2023-01-12T18:59:18.204Z,2.42
2023-01-12T19:02:13.219Z,3.28
2023-01-12T19:05:06.314Z,6.20
2023-01-12T19:08:00.200Z,2.28
2023-01-12T19:10:34.791Z,3.83
2023-01-12T19:13:20.581Z,2.30
2023-01-12T19:16:06.794Z,2.13
2023-01-12T19:18:37.528Z,2.92
2023-01-12T19:21:26.445Z,4.30
2023-01-12T19:24:12.722Z,2.47
2023-01-12T19:27:03.815Z,4.70
2023-01-12T19:29:32.382Z,2.15
2023-01-12T19:32:09.072Z,1.50
2023-01-12T19:34:36.292Z,4.10
2023-01-12T19:37:05.644Z,2.17
2023-01-12T19:40:00.217Z,3.85
2023-01-12T19:42:47.982Z,1.83
2023-01-12T19:45:16.875Z,3.03
2023-01-12T19:47:50.249Z,2.63
2023-01-12T19:50:18.283Z,2.17
2023-01-12T19:53:22.026Z,1.90
2023-01-12T19:55:50.712Z,2.83
2023-01-12T19:58:26.817Z,2.15
2023-01-12T20:00:56.008Z,1.55
2023-01-12T20:03:25.549Z,2.15
2023-01-12T20:05:52.662Z,2.17
2023-01-12T20:08:28.167Z,2.35
2023-01-12T20:10:59.156Z,2.53
2023-01-12T20:13:31.017Z,2.20
2023-01-12T20:15:58.281Z,2.33
2023-01-12T20:18:26.389Z,5.07
2023-01-12T20:20:59.852Z,4.13
2023-01-12T20:29:14.689Z,4.78
2023-01-12T20:31:45.877Z,3.63
2023-01-12T20:34:14.228Z,15.25
2023-01-12T20:36:47.911Z,8.18
2023-01-12T20:39:40.223Z,5.85
2023-01-12T20:42:08.291Z,13.00
2023-01-12T20:44:36.190Z,9.98
2023-01-12T20:47:04.306Z,13.30
2023-01-12T20:49:32.432Z,4.10
2023-01-12T20:52:31.735Z,4.65
2023-01-12T20:55:00.710Z,4.15
2023-01-12T21:00:46.789Z,5.80
2023-01-12T21:03:20.470Z,3.10
2023-01-12T21:05:48.536Z,3.40
2023-01-12T21:08:20.227Z,3.58
2023-01-12T21:10:51.412Z,4.85
2023-01-12T21:13:19.632Z,4.00
2023-01-12T21:15:48.302Z,6.40
2023-01-12T21:18:18.711Z,9.23
2023-01-12T21:20:46.505Z,6.97
2023-01-12T21:23:21.021Z,4.35
2023-01-12T21:28:42.671Z,4.15
2023-01-12T21:31:12.344Z,4.95
2023-01-12T21:33:40.405Z,3.83
2023-01-12T21:36:08.483Z,4.63
2023-01-12T21:42:16.774Z,4.20
2023-01-12T21:44:49.728Z,3.35
2023-01-12T21:47:42.439Z,3.65
2023-01-12T21:50:15.762Z,4.78
2023-01-12T21:52:44.932Z,4.30
2023-01-12T21:55:38.156Z,4.32
2023-01-12T21:58:06.369Z,5.85
2023-01-12T22:00:34.309Z,4.25
2023-01-12T22:03:02.214Z,4.25
2023-01-12T22:05:30.366Z,7.00
2023-01-12T22:07:58.188Z,4.15
2023-01-12T22:10:30.577Z,8.43
2023-01-12T22:13:00.168Z,4.65
2023-01-12T22:15:29.422Z,3.80
2023-01-12T22:17:56.571Z,5.03
2023-01-12T22:23:23.174Z,3.63
2023-01-12T22:25:50.449Z,3.90
2023-01-12T22:28:23.195Z,5.63
2023-01-12T22:33:58.569Z,16.65
2023-01-12T22:36:33.934Z,4.70
2023-01-12T22:39:02.443Z,10.57
2023-01-12T22:41:30.224Z,7.28
2023-01-12T22:43:58.224Z,5.88
2023-01-12T22:46:27.653Z,4.40
2023-01-12T22:48:59.255Z,5.10
2023-01-12T22:51:32.267Z,5.70
2023-01-12T22:54:00.313Z,7.25
2023-01-12T22:59:24.352Z,2.85
2023-01-12T23:01:53.400Z,5.57
2023-01-12T23:04:26.250Z,3.00
2023-01-12T23:06:54.184Z,6.80
2023-01-12T23:09:22.316Z,3.13
2023-01-12T23:12:16.766Z,2.90
2023-01-12T23:14:44.396Z,2.17
2023-01-12T23:17:16.265Z,2.25
2023-01-12T23:19:45.085Z,2.78
2023-01-12T23:22:39.286Z,1.98
2023-01-12T23:25:06.613Z,4.20
2023-01-12T23:30:52.206Z,2.80
2023-01-12T23:42:24.192Z,4.75
2023-01-12T23:45:01.242Z,3.45
2023-01-12T23:47:33.250Z,4.03
2023-01-12T23:50:00.355Z,4.80
2023-01-12T23:52:33.471Z,5.55
2023-01-12T23:55:00.310Z,3.25
2023-01-12T23:57:29.087Z,3.65
2023-01-12T23:59:56.593Z,5.03
